createdAt,value
2018-04-25T00:00:07.525Z,98.90
2018-04-25T00:02:34.299Z,98.70
2018-04-25T00:05:01.033Z,98.50
2018-04-25T00:07:28.534Z,98.60
2018-04-25T00:09:55.237Z,98.60
2018-04-25T00:12:22.891Z,99.00
2018-04-25T00:14:49.719Z,99.10
2018-04-25T00:17:16.491Z,99.20
2018-04-25T00:19:43.987Z,99.20
2018-04-25T00:22:12.198Z,99.10
2018-04-25T00:24:38.961Z,99.20
2018-04-25T00:27:06.406Z,99.10
2018-04-25T00:29:33.818Z,99.10
2018-04-25T00:32:00.500Z,99.10
2018-04-25T00:34:27.201Z,99.10
2018-04-25T00:36:53.994Z,99.00
2018-04-25T00:39:20.848Z,98.90
2018-04-25T00:41:47.564Z,98.90
2018-04-25T00:44:15.150Z,98.90
2018-04-25T00:46:42.228Z,99.00
2018-04-25T00:49:09.745Z,99.10
2018-04-25T00:51:37.002Z,99.10
2018-04-25T00:54:04.303Z,98.90
2018-04-25T00:56:31.989Z,98.80
2018-04-25T00:58:59.429Z,99.20
2018-04-25T01:01:26.159Z,99.10
2018-04-25T01:03:52.871Z,99.60
2018-04-25T01:06:19.741Z,99.30
2018-04-25T01:08:46.406Z,99.20
2018-04-25T01:11:13.121Z,99.20
2018-04-25T01:13:39.886Z,99.10
2018-04-25T01:16:06.585Z,99.30
2018-04-25T01:18:38.228Z,99.20
2018-04-25T01:21:05.636Z,99.30
2018-04-25T01:23:33.376Z,99.00
2018-04-25T01:26:06.993Z,99.30
2018-04-25T01:29:01.106Z,99.30
2018-04-25T01:31:38.645Z,99.90
2018-04-25T01:34:14.214Z,99.90
2018-04-25T01:39:52.595Z,99.60
2018-04-25T01:42:41.536Z,99.90
2018-04-25T01:45:25.643Z,99.90
2018-04-25T01:47:58.215Z,99.90
2018-04-25T01:50:31.722Z,99.80
2018-04-25T01:53:10.330Z,99.70
2018-04-25T01:55:48.962Z,99.70
2018-04-25T01:58:28.356Z,99.70
2018-04-25T02:01:06.989Z,99.70
2018-04-25T02:03:45.681Z,99.60
2018-04-25T02:06:12.966Z,99.90
2018-04-25T02:08:39.488Z,99.80
2018-04-25T02:11:06.138Z,99.70
2018-04-25T02:13:33.691Z,99.70
2018-04-25T02:16:00.266Z,99.90
2018-04-25T02:18:26.886Z,99.80
2018-04-25T02:20:53.541Z,99.60
2018-04-25T02:23:20.852Z,99.70
2018-04-25T02:25:47.436Z,99.50
2018-04-25T02:28:14.035Z,99.50
2018-04-25T02:30:40.701Z,99.60
2018-04-25T02:33:10.637Z,99.50
2018-04-25T02:35:39.417Z,99.60
2018-04-25T02:38:06.640Z,99.50
2018-04-25T02:40:37.343Z,99.60
2018-04-25T02:43:08.586Z,99.90
2018-04-25T02:45:39.734Z,99.90
2018-04-25T02:48:09.192Z,99.90
2018-04-25T02:50:36.046Z,99.90
2018-04-25T02:53:04.484Z,99.90
2018-04-25T02:55:32.680Z,99.90
2018-04-25T02:57:59.975Z,99.90
2018-04-25T03:00:27.647Z,99.90
2018-04-25T03:02:56.142Z,99.90
2018-04-25T03:05:22.824Z,99.90
2018-04-25T03:07:52.809Z,99.90
2018-04-25T03:10:22.460Z,99.90
2018-04-25T03:12:50.614Z,99.90
2018-04-25T03:15:21.751Z,99.90
2018-04-25T03:17:50.185Z,99.90
2018-04-25T03:20:17.949Z,99.90
2018-04-25T03:22:47.131Z,99.90
2018-04-25T03:25:17.204Z,99.90
2018-04-25T03:27:45.971Z,99.90
2018-04-25T03:30:16.291Z,99.90
2018-04-25T03:32:45.181Z,99.90
2018-04-25T03:35:12.521Z,99.90
2018-04-25T03:37:40.982Z,99.90
2018-04-25T03:40:10.051Z,99.90
2018-04-25T03:42:41.237Z,99.90
2018-04-25T03:45:09.822Z,99.90
2018-04-25T03:47:39.959Z,99.90
2018-04-25T03:50:08.959Z,99.90
2018-04-25T03:52:35.705Z,99.90
2018-04-25T03:55:05.280Z,99.90
2018-04-25T03:57:32.676Z,99.90
2018-04-25T04:00:04.335Z,99.90
2018-04-25T04:02:32.511Z,99.90
2018-04-25T04:04:59.669Z,99.90
2018-04-25T04:07:27.601Z,99.90
2018-04-25T04:09:56.129Z,99.90
2018-04-25T04:12:23.703Z,99.90
2018-04-25T04:14:52.046Z,99.90
2018-04-25T04:17:20.098Z,99.90
2018-04-25T04:19:48.278Z,99.90
2018-04-25T04:22:15.560Z,99.90
2018-04-25T04:24:42.267Z,99.90
2018-04-25T04:27:08.823Z,99.90
2018-04-25T04:29:35.516Z,99.90
2018-04-25T04:32:02.131Z,99.90
2018-04-25T04:34:28.770Z,99.90
2018-04-25T04:36:55.318Z,99.90
2018-04-25T04:39:22.134Z,99.90
2018-04-25T04:41:48.724Z,99.90
2018-04-25T04:44:15.315Z,99.90
2018-04-25T04:46:42.006Z,99.90
2018-04-25T04:49:10.175Z,99.90
2018-04-25T04:51:37.097Z,99.90
2018-04-25T04:54:07.518Z,99.90
2018-04-25T04:56:35.116Z,99.90
2018-04-25T04:59:04.005Z,99.90
2018-04-25T05:01:32.216Z,99.90
2018-04-25T05:04:00.667Z,99.90
2018-04-25T05:06:29.921Z,99.90
2018-04-25T05:08:56.658Z,99.90
2018-04-25T05:11:24.620Z,99.90
2018-04-25T05:13:52.706Z,99.90
2018-04-25T05:16:20.192Z,99.90
2018-04-25T05:18:47.550Z,99.90
2018-04-25T05:21:16.690Z,99.90
2018-04-25T05:23:46.686Z,99.90
2018-04-25T05:26:17.979Z,99.90
2018-04-25T05:28:49.020Z,99.90
2018-04-25T05:31:21.641Z,99.90
2018-04-25T05:33:49.173Z,99.90
2018-04-25T05:36:17.455Z,99.90
2018-04-25T05:38:45.329Z,99.90
2018-04-25T05:41:12.274Z,99.90
2018-04-25T05:43:39.107Z,99.90
2018-04-25T05:46:11.049Z,99.80
2018-04-25T05:48:39.548Z,99.00
2018-04-25T05:51:06.290Z,99.20
2018-04-25T05:53:34.969Z,98.20
2018-04-25T05:56:01.809Z,98.20
2018-04-25T05:58:30.380Z,97.50
2018-04-25T06:00:56.984Z,97.50
2018-04-25T06:03:25.372Z,97.00
2018-04-25T06:05:51.945Z,96.90
2018-04-25T06:08:20.265Z,97.90
2018-04-25T06:10:50.297Z,96.10
2018-04-25T06:13:17.537Z,96.10
2018-04-25T06:15:44.229Z,95.70
2018-04-25T06:18:10.881Z,95.20
2018-04-25T06:20:40.071Z,95.80
2018-04-25T06:23:06.826Z,95.50
2018-04-25T06:25:37.522Z,94.90
2018-04-25T06:28:04.558Z,94.30
2018-04-25T06:30:31.933Z,93.70
2018-04-25T06:33:01.267Z,92.80
2018-04-25T06:35:28.759Z,92.80
2018-04-25T06:37:55.882Z,93.30
2018-04-25T06:40:23.184Z,93.30
2018-04-25T06:42:51.266Z,91.60
2018-04-25T06:45:18.723Z,92.70
2018-04-25T06:47:46.457Z,92.70
2018-04-25T06:50:13.261Z,92.30
2018-04-25T06:52:40.058Z,91.70
2018-04-25T06:55:09.144Z,91.10
2018-04-25T06:57:36.579Z,90.90
2018-04-25T07:00:04.707Z,91.10
2018-04-25T07:02:33.714Z,91.00
2018-04-25T07:05:09.217Z,91.20
2018-04-25T07:07:36.005Z,92.20
2018-04-25T07:10:04.320Z,90.50
2018-04-25T07:12:32.957Z,88.30
2018-04-25T07:15:01.043Z,88.30
2018-04-25T07:17:29.121Z,87.70
2018-04-25T07:19:58.366Z,89.70
2018-04-25T07:22:28.566Z,89.20
2018-04-25T07:24:57.737Z,88.50
2018-04-25T07:27:27.817Z,88.60
2018-04-25T07:29:56.666Z,87.80
2018-04-25T07:32:25.781Z,86.70
2018-04-25T07:34:52.462Z,85.40
2018-04-25T07:37:21.581Z,85.50
2018-04-25T07:39:49.128Z,84.10
2018-04-25T07:42:17.049Z,83.70
2018-04-25T07:44:44.410Z,82.30
2018-04-25T07:47:14.049Z,77.90
2018-04-25T07:49:43.832Z,74.70
2018-04-25T07:52:11.424Z,72.60
2018-04-25T07:54:43.160Z,68.40
2018-04-25T07:57:11.521Z,68.40
2018-04-25T07:59:40.806Z,64.70
2018-04-25T08:02:08.624Z,60.80
2018-04-25T08:04:36.481Z,58.00
2018-04-25T08:07:06.728Z,57.20
2018-04-25T08:09:35.471Z,55.40
2018-04-25T08:12:03.302Z,56.10
2018-04-25T08:14:42.140Z,55.50
2018-04-25T08:17:20.626Z,54.10
2018-04-25T08:19:59.363Z,55.50
2018-04-25T08:22:26.034Z,54.00
2018-04-25T08:24:57.163Z,55.70
2018-04-25T08:27:26.297Z,55.00
2018-04-25T08:29:54.509Z,54.60
2018-04-25T08:32:23.417Z,54.80
2018-04-25T08:35:00.655Z,56.00
2018-04-25T08:37:29.207Z,54.30
2018-04-25T08:40:00.204Z,49.70
2018-04-25T08:42:28.899Z,50.40
2018-04-25T08:45:01.116Z,48.40
2018-04-25T08:47:30.230Z,48.40
2018-04-25T08:50:01.333Z,49.20
2018-04-25T08:52:32.786Z,53.00
2018-04-25T08:55:04.362Z,51.10
2018-04-25T08:57:34.728Z,51.10
2018-04-25T09:00:08.234Z,52.10
2018-04-25T09:02:35.598Z,50.90
2018-04-25T09:05:06.611Z,47.60
2018-04-25T09:10:44.799Z,50.50
2018-04-25T09:13:13.601Z,52.10
2018-04-25T09:15:42.606Z,50.20
2018-04-25T09:18:12.615Z,45.10
2018-04-25T09:20:43.917Z,41.20
2018-04-25T09:23:15.797Z,46.20
2018-04-25T09:25:46.237Z,47.70
2018-04-25T09:28:17.604Z,47.50
2018-04-25T09:30:47.472Z,43.80
2018-04-25T09:33:17.725Z,41.40
2018-04-25T09:35:46.639Z,40.90
2018-04-25T09:38:16.240Z,40.90
2018-04-25T09:40:46.643Z,36.90
2018-04-25T09:43:17.759Z,35.60
2018-04-25T09:45:51.666Z,35.40
2018-04-25T09:48:22.453Z,38.00
2018-04-25T09:53:22.978Z,35.70
2018-04-25T09:55:53.706Z,37.90
2018-04-25T09:58:22.168Z,37.70
2018-04-25T10:00:58.802Z,37.90
2018-04-25T10:03:30.270Z,37.90
2018-04-25T10:06:02.465Z,35.30
2018-04-25T10:08:35.008Z,34.40
2018-04-25T10:11:05.089Z,36.50
2018-04-25T10:13:34.916Z,33.60
2018-04-25T10:16:06.124Z,33.30
2018-04-25T10:18:33.955Z,35.60
2018-04-25T10:21:01.907Z,33.20
2018-04-25T10:23:30.509Z,32.10
2018-04-25T10:26:02.937Z,32.10
2018-04-25T10:28:30.997Z,34.00
2018-04-25T10:31:00.887Z,34.30
2018-04-25T10:33:35.174Z,35.00
2018-04-25T10:36:05.159Z,35.80
2018-04-25T10:38:36.361Z,34.40
2018-04-25T10:41:06.281Z,34.30
2018-04-25T10:43:34.453Z,36.90
2018-04-25T10:46:03.207Z,35.50
2018-04-25T10:48:34.554Z,31.50
2018-04-25T10:51:04.441Z,29.40
2018-04-25T10:53:35.862Z,34.30
2018-04-25T10:56:07.071Z,34.20
2018-04-25T10:58:40.854Z,29.60
2018-04-25T11:01:10.660Z,29.70
2018-04-25T11:03:39.397Z,31.90
2018-04-25T11:06:08.497Z,31.90
2018-04-25T11:08:37.121Z,29.70
2018-04-25T11:11:06.534Z,31.20
2018-04-25T11:13:39.086Z,30.40
2018-04-25T11:16:07.244Z,29.50
2018-04-25T11:18:37.129Z,32.10
2018-04-25T11:21:07.186Z,31.00
2018-04-25T11:23:35.873Z,30.30
2018-04-25T11:26:04.729Z,30.30
2018-04-25T11:28:34.738Z,31.30
2018-04-25T11:31:04.700Z,30.00
2018-04-25T11:33:36.979Z,32.70
2018-04-25T11:36:04.747Z,31.50
2018-04-25T11:38:33.530Z,29.50
2018-04-25T11:41:02.194Z,29.40
2018-04-25T11:43:34.679Z,29.40
2018-04-25T11:46:07.084Z,28.50
2018-04-25T11:48:35.800Z,27.20
2018-04-25T11:51:05.666Z,27.10
2018-04-25T11:53:38.039Z,28.00
2018-04-25T11:56:06.858Z,26.50
2018-04-25T11:58:35.854Z,28.70
2018-04-25T12:01:06.706Z,26.70
2018-04-25T12:03:35.565Z,26.80
2018-04-25T12:06:07.146Z,26.50
2018-04-25T12:08:36.008Z,25.70
2018-04-25T12:11:04.218Z,26.20
2018-04-25T12:13:36.565Z,26.00
2018-04-25T12:16:08.918Z,25.90
2018-04-25T12:18:39.051Z,25.70
2018-04-25T12:21:48.543Z,26.30
2018-04-25T12:24:18.373Z,26.20
2018-04-25T12:26:48.256Z,28.10
2018-04-25T12:29:18.412Z,26.70
2018-04-25T12:31:48.124Z,27.40
2018-04-25T12:34:20.576Z,26.00
2018-04-25T12:36:50.066Z,26.90
2018-04-25T12:39:19.251Z,26.40
2018-04-25T12:41:47.533Z,27.20
2018-04-25T12:44:21.982Z,27.10
2018-04-25T12:46:51.255Z,26.30
2018-04-25T12:49:21.078Z,26.10
2018-04-25T12:51:50.892Z,25.50
2018-04-25T12:54:19.679Z,25.50
2018-04-25T12:56:51.706Z,26.20
2018-04-25T12:59:21.931Z,25.20
2018-04-25T13:01:53.234Z,25.10
2018-04-25T13:04:22.980Z,25.10
2018-04-25T13:06:56.684Z,27.50
2018-04-25T13:09:25.596Z,26.90
2018-04-25T13:11:55.916Z,29.10
2018-04-25T13:14:24.903Z,29.50
2018-04-25T13:16:54.749Z,29.70
2018-04-25T13:19:22.632Z,29.80
2018-04-25T13:21:53.777Z,28.50
2018-04-25T13:24:25.573Z,29.10
2018-04-25T13:26:55.346Z,27.40
2018-04-25T13:29:25.319Z,27.90
2018-04-25T13:31:57.884Z,29.40
2018-04-25T13:34:28.977Z,28.40
2018-04-25T13:36:58.120Z,27.90
2018-04-25T13:39:27.211Z,28.30
2018-04-25T13:41:59.890Z,30.00
2018-04-25T13:44:31.332Z,30.90
2018-04-25T13:47:02.305Z,28.90
2018-04-25T13:49:33.256Z,29.80
2018-04-25T13:52:01.121Z,29.70
2018-04-25T13:54:31.228Z,33.10
2018-04-25T13:57:00.063Z,34.30
2018-04-25T13:59:29.859Z,34.10
2018-04-25T14:02:01.191Z,36.00
2018-04-25T14:04:29.826Z,33.80
2018-04-25T14:07:01.552Z,33.50
2018-04-25T14:09:32.684Z,33.90
2018-04-25T14:12:05.161Z,38.80
2018-04-25T14:14:33.061Z,37.70
2018-04-25T14:17:04.630Z,39.10
2018-04-25T14:19:33.639Z,39.30
2018-04-25T14:22:06.260Z,39.30
2018-04-25T14:24:39.460Z,41.30
2018-04-25T14:27:08.377Z,34.90
2018-04-25T14:29:41.365Z,36.10
2018-04-25T14:32:13.013Z,35.00
2018-04-25T14:34:40.635Z,35.60
2018-04-25T14:37:11.099Z,38.70
2018-04-25T14:39:39.997Z,37.80
2018-04-25T14:42:11.116Z,35.30
2018-04-25T14:44:40.980Z,34.20
2018-04-25T14:47:10.081Z,34.70
2018-04-25T14:49:43.361Z,34.00
2018-04-25T14:52:12.324Z,33.50
2018-04-25T14:54:41.548Z,33.30
2018-04-25T14:57:15.985Z,33.30
2018-04-25T14:59:44.527Z,33.70
2018-04-25T15:02:12.635Z,33.90
2018-04-25T15:04:43.581Z,34.30
2018-04-25T15:07:12.460Z,34.60
2018-04-25T15:09:44.883Z,34.30
2018-04-25T15:12:16.306Z,34.20
2018-04-25T15:14:46.015Z,34.70
2018-04-25T15:17:14.133Z,34.70
2018-04-25T15:19:42.151Z,37.80
2018-04-25T15:22:13.424Z,36.70
2018-04-25T15:24:48.089Z,36.20
2018-04-25T15:27:15.990Z,35.90
2018-04-25T15:29:45.958Z,35.30
2018-04-25T15:32:15.986Z,34.90
2018-04-25T15:34:43.697Z,35.10
2018-04-25T15:37:14.973Z,35.10
2018-04-25T15:39:47.272Z,34.60
2018-04-25T15:42:17.032Z,36.30
2018-04-25T15:44:44.819Z,37.00
2018-04-25T15:47:13.688Z,38.10
2018-04-25T15:49:45.311Z,38.30
2018-04-25T15:52:16.638Z,39.20
2018-04-25T15:54:46.149Z,38.10
2018-04-25T15:57:14.519Z,37.90
2018-04-25T15:59:43.610Z,37.50
2018-04-25T16:02:17.424Z,37.00
2018-04-25T16:04:49.482Z,37.30
2018-04-25T16:07:18.500Z,38.30
2018-04-25T16:09:46.451Z,38.90
2018-04-25T16:12:14.631Z,43.40
2018-04-25T16:14:45.871Z,40.10
2018-04-25T16:17:29.827Z,39.00
2018-04-25T16:20:04.579Z,38.70
2018-04-25T16:22:36.456Z,38.20
2018-04-25T16:27:40.978Z,39.80
2018-04-25T16:30:11.437Z,39.60
2018-04-25T16:32:40.091Z,39.80
2018-04-25T16:35:09.059Z,40.40
2018-04-25T16:40:22.685Z,40.70
2018-04-25T16:42:57.847Z,40.40
2018-04-25T16:45:29.589Z,40.70
2018-04-25T16:47:56.333Z,41.40
2018-04-25T16:50:24.320Z,41.70
2018-04-25T16:52:53.241Z,42.10
2018-04-25T16:55:24.941Z,42.30
2018-04-25T16:57:51.511Z,43.10
2018-04-25T17:00:18.101Z,45.40
2018-04-25T17:02:45.464Z,48.30
2018-04-25T17:05:12.004Z,48.30
2018-04-25T17:07:40.205Z,47.60
2018-04-25T17:10:06.819Z,47.70
2018-04-25T17:12:34.845Z,53.90
2018-04-25T17:15:01.492Z,54.00
2018-04-25T17:17:28.082Z,54.90
2018-04-25T17:19:54.721Z,56.90
2018-04-25T17:22:21.409Z,57.40
2018-04-25T17:24:48.049Z,59.80
2018-04-25T17:27:14.788Z,59.40
2018-04-25T17:29:42.175Z,60.30
2018-04-25T17:32:11.041Z,61.60
2018-04-25T17:34:41.217Z,64.10
2018-04-25T17:37:08.940Z,63.80
2018-04-25T17:39:37.269Z,64.50
2018-04-25T17:42:06.294Z,64.60
2018-04-25T17:44:34.054Z,64.60
2018-04-25T17:47:01.603Z,62.20
2018-04-25T17:49:33.770Z,62.40
2018-04-25T17:52:05.415Z,61.90
2018-04-25T17:54:34.267Z,65.00
2018-04-25T17:57:02.010Z,66.10
2018-04-25T17:59:30.089Z,66.20
2018-04-25T18:01:57.628Z,67.70
2018-04-25T18:04:25.303Z,67.70
2018-04-25T18:06:53.074Z,68.30
2018-04-25T18:09:21.804Z,70.70
2018-04-25T18:11:49.751Z,70.60
2018-04-25T18:14:17.374Z,73.10
2018-04-25T18:16:44.943Z,73.20
2018-04-25T18:19:12.953Z,73.10
2018-04-25T18:21:40.649Z,73.10
2018-04-25T18:24:08.353Z,72.60
2018-04-25T18:26:36.888Z,74.50
2018-04-25T18:29:03.837Z,73.80
2018-04-25T18:31:30.628Z,75.80
2018-04-25T18:34:01.016Z,77.10
2018-04-25T18:36:28.497Z,77.80
2018-04-25T18:38:56.075Z,79.70
2018-04-25T18:41:22.829Z,79.70
2018-04-25T18:43:49.640Z,79.40
2018-04-25T18:46:17.901Z,79.30
2018-04-25T18:48:44.701Z,80.50
2018-04-25T18:51:11.628Z,81.10
2018-04-25T18:53:38.406Z,80.30
2018-04-25T18:56:05.204Z,81.50
2018-04-25T18:58:31.891Z,81.10
2018-04-25T19:00:58.601Z,80.00
2018-04-25T19:03:25.321Z,80.60
2018-04-25T19:05:52.064Z,80.10
2018-04-25T19:08:20.401Z,77.40
2018-04-25T19:10:47.164Z,77.60
2018-04-25T19:13:13.865Z,78.70
2018-04-25T19:15:41.503Z,78.70
2018-04-25T19:18:08.197Z,78.60
2018-04-25T19:20:34.827Z,78.30
2018-04-25T19:23:01.667Z,78.50
2018-04-25T19:25:28.411Z,80.10
2018-04-25T19:27:55.192Z,80.10
2018-04-25T19:30:21.916Z,81.30
2018-04-25T19:33:07.386Z,81.90
2018-04-25T19:35:34.137Z,81.90
2018-04-25T19:38:01.580Z,81.60
2018-04-25T19:40:28.275Z,81.50
2018-04-25T19:42:54.962Z,82.70
2018-04-25T19:45:33.175Z,83.60
2018-04-25T19:48:01.421Z,83.40
2018-04-25T19:50:28.111Z,83.40
2018-04-25T19:52:56.571Z,83.50
2018-04-25T21:29:46.345Z,84.00
2018-04-25T21:32:13.143Z,74.30
2018-04-25T21:34:40.585Z,75.50
2018-04-25T21:37:07.321Z,75.60
2018-04-25T21:39:33.913Z,75.90
2018-04-25T21:42:00.647Z,76.10
2018-04-25T21:44:27.297Z,76.50
2018-04-25T21:46:53.932Z,77.40
2018-04-25T21:49:20.525Z,77.70
2018-04-25T21:51:47.132Z,78.00
2018-04-25T21:54:13.769Z,78.70
2018-04-25T21:56:40.430Z,79.10
2018-04-25T21:59:07.062Z,80.90
2018-04-25T22:01:33.750Z,81.30
2018-04-25T22:04:00.459Z,82.00
2018-04-25T22:06:27.092Z,82.20
2018-04-25T22:08:53.746Z,82.40
2018-04-25T22:11:21.129Z,83.70
2018-04-25T22:13:47.786Z,83.60
2018-04-25T22:16:14.511Z,84.10
2018-04-25T22:18:41.144Z,84.70
2018-04-25T22:21:07.750Z,85.20
2018-04-25T22:23:34.400Z,85.10
2018-04-25T22:26:01.769Z,86.40
2018-04-25T22:28:28.427Z,86.30
2018-04-25T22:30:55.052Z,85.80
2018-04-25T22:33:21.707Z,85.50
2018-04-25T22:35:48.341Z,85.00
2018-04-25T22:38:14.948Z,86.60
2018-04-25T22:40:42.368Z,87.50
2018-04-25T22:43:09.820Z,86.80
2018-04-25T22:45:36.458Z,86.70
2018-04-25T22:48:03.070Z,87.20
2018-04-25T22:50:29.702Z,89.00
2018-04-25T22:52:57.106Z,89.40
2018-04-25T22:55:23.750Z,89.40
2018-04-25T22:57:50.408Z,89.10
2018-04-25T23:00:18.872Z,90.00
2018-04-25T23:02:45.553Z,90.00
2018-04-25T23:05:12.141Z,90.10
2018-04-25T23:07:38.760Z,90.30
2018-04-25T23:10:05.408Z,90.40
2018-04-25T23:12:32.052Z,90.40
2018-04-25T23:14:59.559Z,89.70
2018-04-25T23:17:26.384Z,89.40
2018-04-25T23:19:53.831Z,90.50
2018-04-25T23:22:21.341Z,90.60
2018-04-25T23:24:47.955Z,90.60
2018-04-25T23:27:14.633Z,90.90
2018-04-25T23:29:41.441Z,91.20
2018-04-25T23:32:08.144Z,91.50
2018-04-25T23:34:34.829Z,91.50
2018-04-25T23:37:01.578Z,91.80
2018-04-25T23:39:28.229Z,92.00
2018-04-25T23:41:55.035Z,92.10
2018-04-25T23:44:21.786Z,92.10
2018-04-25T23:46:48.477Z,92.30
2018-04-25T23:49:16.170Z,92.10
2018-04-25T23:51:43.531Z,92.50
2018-04-25T23:54:10.141Z,92.50
2018-04-25T23:56:36.786Z,92.50
2018-04-25T23:59:03.496Z,92.60
